createdAt,value
2019-05-29T00:00:36.222Z,10.23
2019-05-29T00:01:36.198Z,10.15
2019-05-29T00:02:36.211Z,10.17
2019-05-29T00:03:36.227Z,10.12
2019-05-29T00:04:36.237Z,10.09
2019-05-29T00:05:36.255Z,10.12
2019-05-29T00:06:36.261Z,10.12
2019-05-29T00:07:36.284Z,10.01
2019-05-29T00:08:36.290Z,10.02
2019-05-29T00:09:36.315Z,10.07
2019-05-29T00:10:36.309Z,10.01
2019-05-29T00:11:36.319Z,9.97
2019-05-29T00:12:36.353Z,10.02
2019-05-29T00:13:36.354Z,9.94
2019-05-29T00:14:36.911Z,10.01
2019-05-29T00:15:36.371Z,9.94
2019-05-29T00:16:36.383Z,9.96
2019-05-29T00:17:36.415Z,10.04
2019-05-29T00:18:36.888Z,9.94
2019-05-29T00:19:36.430Z,9.99
2019-05-29T00:20:36.434Z,10.02
2019-05-29T00:21:36.444Z,9.97
2019-05-29T00:22:36.454Z,9.90
2019-05-29T00:23:36.473Z,9.94
2019-05-29T00:24:36.794Z,9.90
2019-05-29T00:25:36.501Z,9.84
2019-05-29T00:26:36.502Z,9.86
2019-05-29T00:27:36.515Z,9.90
2019-05-29T00:28:36.535Z,9.78
2019-05-29T00:29:36.554Z,9.75
2019-05-29T00:30:36.554Z,9.76
2019-05-29T00:32:37.002Z,9.81
2019-05-29T00:33:36.592Z,9.74
2019-05-29T00:34:36.610Z,9.76
2019-05-29T00:35:36.621Z,9.76
2019-05-29T00:36:36.626Z,9.84
2019-05-29T00:37:36.639Z,9.71
2019-05-29T00:38:36.650Z,9.74
2019-05-29T00:39:36.660Z,9.66
2019-05-29T00:40:36.676Z,9.71
2019-05-29T00:41:36.865Z,9.68
2019-05-29T00:42:36.802Z,9.69
2019-05-29T00:43:37.206Z,9.72
2019-05-29T00:44:36.733Z,9.75
2019-05-29T00:45:36.790Z,9.65
2019-05-29T00:46:36.893Z,9.65
2019-05-29T00:47:36.796Z,9.71
2019-05-29T00:48:36.772Z,9.72
2019-05-29T00:49:36.785Z,9.69
2019-05-29T00:50:36.801Z,9.65
2019-05-29T00:51:36.833Z,9.60
2019-05-29T00:52:36.839Z,9.65
2019-05-29T00:53:36.922Z,9.58
2019-05-29T00:54:36.851Z,9.57
2019-05-29T00:55:36.856Z,9.57
2019-05-29T00:56:36.864Z,9.57
2019-05-29T00:57:36.878Z,9.48
2019-05-29T00:58:36.892Z,9.60
2019-05-29T00:59:36.906Z,9.48
2019-05-29T01:00:36.920Z,9.46
2019-05-29T01:01:36.930Z,9.54
2019-05-29T01:02:36.945Z,9.51
2019-05-29T01:03:36.950Z,9.51
2019-05-29T01:04:36.969Z,9.51
2019-05-29T01:05:36.975Z,9.50
2019-05-29T01:06:36.989Z,9.46
2019-05-29T01:07:37.001Z,9.54
2019-05-29T01:09:37.020Z,9.43
2019-05-29T01:10:37.082Z,9.40
2019-05-29T01:11:37.147Z,9.39
2019-05-29T01:12:37.241Z,9.50
2019-05-29T01:13:37.287Z,9.42
2019-05-29T01:14:49.175Z,9.38
2019-05-29T01:15:37.500Z,9.38
2019-05-29T01:16:37.144Z,9.35
2019-05-29T01:17:37.190Z,9.39
2019-05-29T01:18:37.465Z,9.42
2019-05-29T01:19:37.185Z,9.38
2019-05-29T01:20:37.268Z,9.38
2019-05-29T01:21:37.170Z,9.38
2019-05-29T01:22:37.186Z,9.38
2019-05-29T01:23:37.193Z,9.39
2019-05-29T01:24:37.276Z,9.40
2019-05-29T01:25:37.219Z,9.40
2019-05-29T01:26:37.224Z,9.38
2019-05-29T01:27:37.236Z,9.33
2019-05-29T01:28:37.263Z,9.24
2019-05-29T01:29:37.258Z,9.18
2019-05-29T01:30:37.338Z,9.28
2019-05-29T01:31:37.291Z,9.28
2019-05-29T01:32:37.311Z,9.20
2019-05-29T01:33:37.309Z,9.21
2019-05-29T01:34:37.326Z,9.29
2019-05-29T01:35:37.346Z,9.20
2019-05-29T01:36:37.368Z,9.18
2019-05-29T01:37:37.367Z,9.26
2019-05-29T01:38:37.369Z,9.20
2019-05-29T01:39:37.388Z,9.18
2019-05-29T01:40:37.400Z,9.31
2019-05-29T01:41:37.405Z,9.17
2019-05-29T01:42:37.416Z,9.23
2019-05-29T01:43:37.426Z,9.18
2019-05-29T01:44:37.442Z,9.05
2019-05-29T01:45:37.454Z,9.10
2019-05-29T01:46:37.653Z,9.13
2019-05-29T01:48:37.487Z,9.14
2019-05-29T01:49:38.160Z,9.20
2019-05-29T01:50:37.508Z,9.18
2019-05-29T01:51:37.528Z,9.11
2019-05-29T01:52:37.535Z,9.17
2019-05-29T01:53:37.544Z,9.14
2019-05-29T01:54:37.561Z,9.11
2019-05-29T01:55:37.573Z,9.04
2019-05-29T01:56:37.580Z,9.08
2019-05-29T01:58:37.606Z,8.87
2019-05-29T01:59:37.616Z,8.91
2019-05-29T02:00:37.627Z,8.94
2019-05-29T02:01:37.639Z,8.91
2019-05-29T02:02:37.649Z,8.94
2019-05-29T02:03:37.674Z,8.91
2019-05-29T02:04:37.674Z,8.84
2019-05-29T02:05:37.732Z,8.83
2019-05-29T02:06:37.705Z,8.84
2019-05-29T02:07:37.709Z,8.81
2019-05-29T02:08:37.794Z,8.84
2019-05-29T02:09:37.737Z,8.87
2019-05-29T02:10:37.746Z,8.83
2019-05-29T02:11:37.765Z,8.95
2019-05-29T02:12:37.768Z,8.94
2019-05-29T02:13:37.782Z,8.86
2019-05-29T02:14:37.799Z,8.96
2019-05-29T02:15:37.808Z,9.04
2019-05-29T02:16:37.819Z,9.01
2019-05-29T02:17:37.826Z,8.94
2019-05-29T02:19:38.053Z,8.89
2019-05-29T02:20:37.866Z,8.83
2019-05-29T02:21:38.481Z,8.83
2019-05-29T02:22:37.894Z,8.94
2019-05-29T02:23:37.940Z,8.80
2019-05-29T02:24:37.913Z,8.81
2019-05-29T02:25:37.917Z,8.77
2019-05-29T02:26:37.934Z,8.84
2019-05-29T02:27:37.943Z,8.81
2019-05-29T02:28:37.978Z,8.84
2019-05-29T02:29:38.375Z,8.86
2019-05-29T02:30:37.977Z,8.98
2019-05-29T02:31:37.988Z,8.98
2019-05-29T02:32:38.013Z,8.89
2019-05-29T02:33:38.017Z,8.84
2019-05-29T02:34:38.025Z,8.79
2019-05-29T02:35:38.035Z,8.77
2019-05-29T02:36:38.052Z,8.87
2019-05-29T02:37:38.059Z,8.77
2019-05-29T02:38:38.069Z,8.70
2019-05-29T02:39:38.086Z,8.68
2019-05-29T02:40:38.107Z,8.65
2019-05-29T02:41:38.138Z,8.79
2019-05-29T02:42:38.130Z,8.76
2019-05-29T02:43:38.130Z,8.79
2019-05-29T02:44:38.146Z,8.73
2019-05-29T02:45:53.432Z,8.79
2019-05-29T02:46:38.162Z,8.80
2019-05-29T02:47:38.181Z,8.84
2019-05-29T02:48:38.191Z,8.77
2019-05-29T02:49:38.207Z,8.86
2019-05-29T02:52:38.467Z,8.80
2019-05-29T02:53:38.550Z,8.73
2019-05-29T02:54:38.865Z,8.73
2019-05-29T02:55:38.278Z,8.74
2019-05-29T02:56:42.294Z,8.79
2019-05-29T02:57:38.844Z,8.74
2019-05-29T02:58:39.826Z,8.70
2019-05-29T02:59:38.317Z,8.66
2019-05-29T03:00:38.329Z,8.65
2019-05-29T03:01:38.338Z,8.68
2019-05-29T03:02:38.359Z,8.66
2019-05-29T03:03:40.099Z,8.59
2019-05-29T03:04:38.378Z,8.70
2019-05-29T03:05:38.386Z,8.74
2019-05-29T03:06:38.419Z,8.73
2019-05-29T03:07:38.406Z,8.71
2019-05-29T03:08:38.418Z,8.65
2019-05-29T03:09:38.428Z,8.81
2019-05-29T03:10:38.445Z,8.65
2019-05-29T03:11:38.459Z,8.79
2019-05-29T03:12:38.464Z,8.77
2019-05-29T03:13:38.479Z,8.59
2019-05-29T03:14:38.491Z,8.66
2019-05-29T03:15:38.501Z,8.79
2019-05-29T03:16:38.511Z,8.76
2019-05-29T03:17:38.583Z,8.74
2019-05-29T03:18:38.534Z,8.79
2019-05-29T03:19:38.564Z,8.62
2019-05-29T03:20:38.577Z,8.76
2019-05-29T03:21:38.566Z,8.62
2019-05-29T03:22:38.614Z,8.73
2019-05-29T03:23:38.766Z,8.70
2019-05-29T03:26:39.378Z,8.62
2019-05-29T03:29:39.178Z,8.56
2019-05-29T03:30:45.353Z,8.53
2019-05-29T03:31:46.603Z,8.48
2019-05-29T03:32:46.127Z,8.65
2019-05-29T03:33:47.761Z,8.50
2019-05-29T03:34:45.748Z,8.58
2019-05-29T03:35:46.780Z,8.55
2019-05-29T03:36:46.342Z,8.41
2019-05-29T03:37:38.982Z,8.41
2019-05-29T03:38:38.762Z,8.37
2019-05-29T03:39:38.772Z,8.37
2019-05-29T03:40:38.858Z,8.37
2019-05-29T03:41:39.210Z,8.38
2019-05-29T03:42:39.275Z,8.45
2019-05-29T03:43:38.938Z,8.40
2019-05-29T03:44:38.861Z,8.48
2019-05-29T03:45:38.844Z,8.52
2019-05-29T03:46:45.225Z,8.56
2019-05-29T03:47:38.958Z,8.53
2019-05-29T03:48:38.926Z,8.52
2019-05-29T03:49:38.907Z,8.59
2019-05-29T03:50:38.909Z,8.56
2019-05-29T03:51:39.102Z,8.53
2019-05-29T03:52:39.228Z,8.55
2019-05-29T03:53:38.944Z,8.55
2019-05-29T03:55:38.983Z,8.63
2019-05-29T03:56:39.098Z,8.61
2019-05-29T03:57:38.981Z,8.62
2019-05-29T03:58:38.994Z,8.61
2019-05-29T03:59:39.285Z,8.55
2019-05-29T04:00:46.165Z,8.56
2019-05-29T04:01:40.389Z,8.59
2019-05-29T04:02:40.057Z,8.58
2019-05-29T04:03:39.338Z,8.59
2019-05-29T04:04:39.058Z,8.59
2019-05-29T04:05:39.070Z,8.63
2019-05-29T04:06:39.110Z,8.58
2019-05-29T04:07:39.144Z,8.55
2019-05-29T04:08:39.101Z,8.50
2019-05-29T04:09:39.124Z,8.45
2019-05-29T04:10:39.725Z,8.58
2019-05-29T04:11:39.143Z,8.59
2019-05-29T04:12:39.152Z,8.65
2019-05-29T04:13:39.369Z,8.68
2019-05-29T04:14:39.181Z,8.68
2019-05-29T04:15:39.189Z,8.62
2019-05-29T04:16:58.468Z,8.55
2019-05-29T04:17:39.209Z,8.61
2019-05-29T04:18:39.220Z,8.68
2019-05-29T04:19:39.243Z,8.66
2019-05-29T04:20:39.253Z,8.70
2019-05-29T04:21:39.268Z,8.62
2019-05-29T04:22:39.262Z,8.73
2019-05-29T04:23:39.288Z,8.62
2019-05-29T04:24:39.310Z,8.70
2019-05-29T04:25:42.635Z,8.63
2019-05-29T04:26:39.427Z,8.79
2019-05-29T04:27:39.388Z,8.63
2019-05-29T04:28:39.359Z,8.70
2019-05-29T04:30:39.616Z,8.70
2019-05-29T04:31:39.464Z,8.76
2019-05-29T04:32:39.529Z,8.83
2019-05-29T04:33:39.513Z,8.81
2019-05-29T04:34:39.976Z,8.87
2019-05-29T04:35:39.949Z,8.86
2019-05-29T04:36:39.663Z,8.95
2019-05-29T04:37:40.155Z,8.87
2019-05-29T04:38:40.445Z,8.84
2019-05-29T04:39:39.490Z,8.99
2019-05-29T04:40:39.806Z,8.96
2019-05-29T04:41:39.524Z,9.05
2019-05-29T04:42:40.216Z,9.04
2019-05-29T04:43:39.983Z,9.04
2019-05-29T04:44:41.182Z,9.05
2019-05-29T04:45:40.225Z,9.18
2019-05-29T04:46:40.743Z,9.17
2019-05-29T04:47:39.877Z,9.24
2019-05-29T04:48:40.456Z,9.17
2019-05-29T04:49:39.933Z,9.31
2019-05-29T04:50:40.723Z,9.33
2019-05-29T04:52:40.188Z,9.40
2019-05-29T04:53:40.002Z,9.39
2019-05-29T04:54:40.221Z,9.40
2019-05-29T04:55:39.645Z,9.46
2019-05-29T04:57:39.786Z,9.54
2019-05-29T04:58:40.336Z,9.56
2019-05-29T04:59:39.720Z,9.51
2019-05-29T05:00:56.055Z,9.51
2019-05-29T05:01:39.744Z,9.57
2019-05-29T05:02:39.726Z,9.56
2019-05-29T05:03:40.927Z,9.48
2019-05-29T05:04:39.757Z,9.54
2019-05-29T05:05:39.790Z,9.50
2019-05-29T05:06:39.786Z,9.54
2019-05-29T05:07:39.839Z,9.56
2019-05-29T05:08:40.219Z,9.54
2019-05-29T05:09:39.830Z,9.66
2019-05-29T05:10:41.009Z,9.71
2019-05-29T05:11:39.942Z,9.72
2019-05-29T05:12:40.165Z,9.66
2019-05-29T05:13:39.860Z,9.75
2019-05-29T05:14:40.121Z,9.81
2019-05-29T05:15:40.225Z,9.81
2019-05-29T05:16:40.055Z,9.76
2019-05-29T05:17:40.218Z,9.90
2019-05-29T05:18:40.319Z,9.93
2019-05-29T05:19:40.187Z,9.91
2019-05-29T05:20:40.403Z,9.97
2019-05-29T05:21:40.306Z,9.94
2019-05-29T05:22:40.949Z,10.01
2019-05-29T05:23:40.589Z,10.02
2019-05-29T05:25:41.029Z,10.11
2019-05-29T05:26:40.483Z,10.07
2019-05-29T05:27:40.620Z,10.25
2019-05-29T05:28:43.449Z,10.26
2019-05-29T05:29:40.500Z,10.29
2019-05-29T05:30:40.815Z,10.26
2019-05-29T05:31:40.847Z,10.27
2019-05-29T05:32:41.163Z,10.30
2019-05-29T05:33:41.087Z,10.38
2019-05-29T05:34:41.023Z,10.34
2019-05-29T05:35:41.018Z,10.41
2019-05-29T05:36:41.043Z,10.44
2019-05-29T05:37:41.060Z,10.51
2019-05-29T05:38:41.134Z,10.47
2019-05-29T05:39:41.184Z,10.44
2019-05-29T05:40:42.731Z,10.47
2019-05-29T05:41:41.042Z,10.59
2019-05-29T05:42:41.261Z,10.61
2019-05-29T05:43:41.435Z,10.52
2019-05-29T05:44:41.146Z,10.63
2019-05-29T05:45:41.230Z,10.60
2019-05-29T05:46:41.316Z,10.63
2019-05-29T05:47:54.681Z,10.55
2019-05-29T05:48:41.313Z,10.78
2019-05-29T05:49:41.688Z,10.76
2019-05-29T05:50:41.502Z,10.78
2019-05-29T05:51:44.166Z,10.71
2019-05-29T05:52:41.676Z,10.73
2019-05-29T05:54:41.641Z,10.76
2019-05-29T05:55:41.723Z,10.81
2019-05-29T05:57:41.746Z,10.73
2019-05-29T05:58:41.971Z,10.85
2019-05-29T05:59:41.942Z,10.88
2019-05-29T06:01:42.083Z,11.06
2019-05-29T06:02:42.012Z,11.07
2019-05-29T06:03:42.423Z,11.07
2019-05-29T06:04:42.071Z,11.03
2019-05-29T06:06:40.711Z,11.11
2019-05-29T06:07:40.544Z,11.11
2019-05-29T06:08:40.529Z,11.04
2019-05-29T06:09:40.611Z,11.06
2019-05-29T06:10:40.558Z,11.09
2019-05-29T06:11:40.607Z,11.11
2019-05-29T06:12:40.660Z,11.19
2019-05-29T06:13:40.783Z,11.24
2019-05-29T06:14:40.957Z,11.21
2019-05-29T06:16:42.770Z,11.32
2019-05-29T06:17:40.798Z,11.27
2019-05-29T06:18:40.704Z,11.44
2019-05-29T06:19:41.143Z,11.44
2019-05-29T06:20:41.074Z,11.46
2019-05-29T06:21:40.940Z,11.55
2019-05-29T06:22:41.170Z,11.54
2019-05-29T06:23:41.117Z,11.58
2019-05-29T06:24:41.026Z,11.54
2019-05-29T06:25:42.424Z,11.61
2019-05-29T06:26:41.073Z,11.60
2019-05-29T06:27:41.389Z,11.58
2019-05-29T06:28:41.278Z,11.61
2019-05-29T06:29:41.280Z,11.69
2019-05-29T06:30:42.587Z,11.69
2019-05-29T06:31:41.438Z,11.79
2019-05-29T06:32:41.541Z,11.88
2019-05-29T06:33:41.538Z,11.76
2019-05-29T06:34:41.614Z,11.76
2019-05-29T06:35:41.684Z,11.88
2019-05-29T06:36:41.630Z,11.91
2019-05-29T06:37:41.761Z,12.02
2019-05-29T06:38:42.199Z,11.91
2019-05-29T06:39:41.791Z,12.02
2019-05-29T06:40:42.129Z,12.01
2019-05-29T06:41:42.045Z,12.05
2019-05-29T06:42:41.937Z,12.05
2019-05-29T06:43:41.948Z,12.09
2019-05-29T06:44:41.972Z,12.10
2019-05-29T06:45:42.040Z,12.09
2019-05-29T06:46:42.468Z,12.05
2019-05-29T06:47:42.633Z,12.09
2019-05-29T06:48:53.602Z,12.21
2019-05-29T06:49:42.102Z,12.20
2019-05-29T06:50:41.474Z,12.07
2019-05-29T06:51:41.384Z,12.12
2019-05-29T06:52:43.514Z,12.27
2019-05-29T06:53:41.771Z,12.23
2019-05-29T06:54:42.005Z,12.42
2019-05-29T06:55:42.145Z,12.49
2019-05-29T06:56:41.766Z,12.46
2019-05-29T06:57:42.688Z,12.54
2019-05-29T06:58:42.232Z,12.47
2019-05-29T06:59:42.397Z,12.37
2019-05-29T07:00:42.789Z,12.39
2019-05-29T07:01:41.770Z,12.35
2019-05-29T07:02:42.553Z,12.29
2019-05-29T07:03:41.789Z,12.31
2019-05-29T07:04:42.488Z,12.23
2019-05-29T07:05:49.622Z,12.20
2019-05-29T07:07:42.472Z,12.14
2019-05-29T07:08:45.030Z,12.23
2019-05-29T07:09:41.457Z,12.27
2019-05-29T07:10:42.598Z,12.19
2019-05-29T07:11:41.406Z,12.21
2019-05-29T07:12:42.408Z,12.32
2019-05-29T07:13:43.932Z,12.39
2019-05-29T07:14:42.402Z,12.50
2019-05-29T07:15:42.816Z,12.47
2019-05-29T07:16:49.578Z,12.50
2019-05-29T07:17:42.457Z,12.53
2019-05-29T07:19:20.645Z,12.47
2019-05-29T07:19:56.659Z,12.46
2019-05-29T07:20:42.657Z,12.50
2019-05-29T07:21:42.745Z,12.49
2019-05-29T07:22:42.735Z,12.49
2019-05-29T07:23:44.639Z,12.49
2019-05-29T07:24:43.350Z,12.50
2019-05-29T07:25:42.879Z,12.49
2019-05-29T07:26:43.043Z,12.62
2019-05-29T07:27:42.796Z,12.65
2019-05-29T07:28:58.923Z,12.68
2019-05-29T07:29:41.569Z,12.78
2019-05-29T07:30:46.874Z,12.78
2019-05-29T07:31:41.586Z,12.85
2019-05-29T07:32:43.205Z,12.83
2019-05-29T07:33:43.181Z,12.93
2019-05-29T07:34:56.741Z,12.97
2019-05-29T07:35:41.627Z,13.00
2019-05-29T07:36:41.992Z,13.03
2019-05-29T07:37:41.754Z,13.07
2019-05-29T07:38:49.333Z,13.03
2019-05-29T07:39:41.685Z,12.97
2019-05-29T07:40:42.696Z,12.93
2019-05-29T07:41:41.748Z,12.97
2019-05-29T07:42:47.270Z,13.03
2019-05-29T07:43:41.880Z,12.97
2019-05-29T07:44:42.147Z,13.07
2019-05-29T07:45:42.212Z,13.11
2019-05-29T07:46:42.467Z,13.05
2019-05-29T07:47:42.693Z,13.14
2019-05-29T07:48:42.606Z,13.14
2019-05-29T07:50:42.575Z,12.96
2019-05-29T07:51:43.380Z,13.08
2019-05-29T07:52:43.198Z,13.22
2019-05-29T07:53:42.259Z,13.22
2019-05-29T07:54:41.937Z,13.33
2019-05-29T07:55:42.581Z,13.41
2019-05-29T07:56:42.443Z,13.45
2019-05-29T07:57:42.793Z,13.32
2019-05-29T07:58:49.023Z,13.39
2019-05-29T07:59:42.665Z,13.39
2019-05-29T08:01:06.741Z,13.38
2019-05-29T08:01:42.778Z,13.38
2019-05-29T08:02:43.202Z,13.36
2019-05-29T08:03:43.489Z,13.17
2019-05-29T08:04:43.044Z,13.19
2019-05-29T08:05:46.011Z,13.14
2019-05-29T08:06:48.286Z,13.19
2019-05-29T08:07:43.409Z,13.20
2019-05-29T08:08:43.217Z,13.26
2019-05-29T08:09:42.091Z,13.23
2019-05-29T08:10:43.365Z,13.38
2019-05-29T08:11:43.454Z,13.42
2019-05-29T08:12:50.241Z,13.46
2019-05-29T08:13:43.874Z,13.63
2019-05-29T08:14:42.158Z,13.57
2019-05-29T08:15:56.417Z,13.70
2019-05-29T08:16:42.180Z,13.70
2019-05-29T08:17:42.209Z,13.71
2019-05-29T08:18:47.272Z,13.71
2019-05-29T08:19:59.320Z,13.67
2019-05-29T08:20:42.327Z,13.66
2019-05-29T08:21:42.712Z,13.71
2019-05-29T08:22:42.414Z,13.71
2019-05-29T08:23:42.440Z,13.82
2019-05-29T08:24:42.688Z,13.89
2019-05-29T08:25:43.447Z,14.04
2019-05-29T08:26:43.025Z,14.06
2019-05-29T08:27:42.655Z,13.99
2019-05-29T08:28:42.825Z,14.04
2019-05-29T08:29:42.668Z,14.12
2019-05-29T08:30:47.363Z,14.25
2019-05-29T08:31:42.739Z,14.18
2019-05-29T08:32:43.590Z,14.18
2019-05-29T08:33:42.844Z,14.07
2019-05-29T08:34:43.067Z,14.06
2019-05-29T08:35:43.086Z,14.04
2019-05-29T08:37:01.771Z,14.25
2019-05-29T08:37:43.172Z,14.36
2019-05-29T08:38:44.137Z,14.36
2019-05-29T08:39:43.420Z,14.50
2019-05-29T08:40:42.998Z,14.46
2019-05-29T08:41:47.995Z,14.36
2019-05-29T08:42:43.175Z,14.51
2019-05-29T08:43:44.779Z,14.54
2019-05-29T08:44:43.701Z,14.60
2019-05-29T08:45:43.487Z,14.65
2019-05-29T08:46:57.661Z,14.73
2019-05-29T08:47:43.509Z,14.89
2019-05-29T08:48:43.692Z,14.96
2019-05-29T08:49:43.700Z,14.91
2019-05-29T08:50:43.691Z,14.92
2019-05-29T08:51:43.822Z,14.60
2019-05-29T08:52:43.838Z,14.58
2019-05-29T08:53:44.036Z,14.57
2019-05-29T08:54:43.880Z,14.64
2019-05-29T08:55:44.116Z,14.70
2019-05-29T08:56:42.720Z,14.78
2019-05-29T08:57:44.100Z,14.91
2019-05-29T08:58:42.951Z,15.01
2019-05-29T09:00:48.180Z,14.92
2019-05-29T09:01:43.266Z,14.99
2019-05-29T09:02:42.836Z,15.09
2019-05-29T09:03:44.725Z,15.13
2019-05-29T09:04:43.093Z,15.19
2019-05-29T09:05:42.858Z,15.03
2019-05-29T09:06:43.055Z,15.03
2019-05-29T09:07:43.525Z,15.16
2019-05-29T09:08:43.961Z,15.09
2019-05-29T09:09:44.849Z,15.10
2019-05-29T09:10:43.296Z,15.09
2019-05-29T09:11:43.061Z,15.10
2019-05-29T09:12:46.930Z,15.13
2019-05-29T09:13:43.616Z,15.16
2019-05-29T09:14:42.973Z,15.06
2019-05-29T09:15:43.305Z,15.09
2019-05-29T09:16:43.030Z,15.17
2019-05-29T09:17:43.661Z,15.21
2019-05-29T09:18:43.653Z,15.25
2019-05-29T09:19:43.132Z,15.25
2019-05-29T09:21:01.924Z,15.27
2019-05-29T09:21:43.065Z,15.16
2019-05-29T09:22:43.137Z,15.03
2019-05-29T09:23:43.101Z,15.13
2019-05-29T09:24:43.156Z,15.21
2019-05-29T09:25:43.120Z,15.19
2019-05-29T09:26:46.341Z,15.14
2019-05-29T09:27:43.145Z,15.21
2019-05-29T09:28:43.178Z,15.02
2019-05-29T09:29:43.303Z,15.13
2019-05-29T09:30:43.199Z,15.09
2019-05-29T09:31:43.208Z,15.23
2019-05-29T09:32:50.479Z,15.09
2019-05-29T09:33:43.237Z,15.11
2019-05-29T09:34:46.915Z,15.23
2019-05-29T09:35:43.303Z,15.34
2019-05-29T09:36:43.562Z,15.17
2019-05-29T09:37:43.310Z,14.99
2019-05-29T09:38:43.310Z,15.07
2019-05-29T09:39:44.361Z,15.06
2019-05-29T09:40:43.325Z,15.06
2019-05-29T09:41:43.356Z,15.09
2019-05-29T09:42:43.369Z,15.19
2019-05-29T09:43:57.622Z,15.34
2019-05-29T09:44:46.420Z,15.54
2019-05-29T09:45:43.554Z,15.59
2019-05-29T09:46:43.419Z,15.72
2019-05-29T09:47:43.955Z,15.78
2019-05-29T09:48:49.710Z,15.78
2019-05-29T09:49:43.456Z,15.80
2019-05-29T09:50:50.031Z,15.76
2019-05-29T09:51:43.531Z,15.76
2019-05-29T09:52:43.552Z,15.82
2019-05-29T09:53:43.515Z,15.86
2019-05-29T09:54:43.522Z,15.80
2019-05-29T09:55:43.538Z,15.74
2019-05-29T09:56:43.554Z,15.82
2019-05-29T09:57:43.574Z,16.08
2019-05-29T09:58:43.584Z,16.17
2019-05-29T09:59:43.648Z,16.28
2019-05-29T10:00:43.801Z,16.27
2019-05-29T10:01:43.626Z,16.14
2019-05-29T10:02:43.683Z,16.12
2019-05-29T10:03:43.672Z,16.12
2019-05-29T10:04:43.663Z,16.04
2019-05-29T10:05:44.095Z,16.23
2019-05-29T10:06:43.707Z,16.28
2019-05-29T10:07:43.716Z,16.17
2019-05-29T10:08:43.892Z,16.24
2019-05-29T10:09:43.741Z,16.38
2019-05-29T10:10:44.015Z,16.49
2019-05-29T10:11:44.048Z,16.64
2019-05-29T10:12:43.784Z,16.73
2019-05-29T10:13:43.975Z,16.75
2019-05-29T10:14:43.845Z,16.71
2019-05-29T10:15:43.852Z,16.71
2019-05-29T10:16:43.887Z,16.76
2019-05-29T10:17:43.863Z,16.83
2019-05-29T10:18:43.863Z,16.81
2019-05-29T10:20:44.195Z,16.76
2019-05-29T10:21:43.946Z,16.88
2019-05-29T10:22:43.923Z,16.94
2019-05-29T10:23:44.049Z,16.94
2019-05-29T10:24:43.974Z,16.86
2019-05-29T10:25:43.966Z,16.83
2019-05-29T10:26:43.977Z,16.93
2019-05-29T10:27:43.997Z,16.98
2019-05-29T10:29:44.588Z,16.96
2019-05-29T10:30:44.438Z,16.83
2019-05-29T10:31:46.775Z,16.88
2019-05-29T10:32:44.527Z,16.86
2019-05-29T10:32:52.846Z,16.93
2019-05-29T10:33:44.179Z,16.82
2019-05-29T10:34:44.383Z,16.83
2019-05-29T10:35:44.677Z,16.94
2019-05-29T10:36:46.980Z,17.00
2019-05-29T10:37:44.555Z,17.07
2019-05-29T10:38:44.391Z,16.94
2019-05-29T10:39:44.684Z,16.97
2019-05-29T10:40:47.356Z,16.91
2019-05-29T10:41:44.687Z,17.01
2019-05-29T10:42:45.084Z,17.14
2019-05-29T10:43:45.025Z,17.22
2019-05-29T10:44:44.860Z,17.06
2019-05-29T10:45:45.667Z,17.11
2019-05-29T10:46:46.089Z,17.23
2019-05-29T10:47:45.493Z,17.21
2019-05-29T10:48:47.704Z,17.40
2019-05-29T10:49:45.471Z,17.55
2019-05-29T10:50:47.775Z,17.46
2019-05-29T10:52:00.352Z,17.63
2019-05-29T10:52:44.366Z,17.63
2019-05-29T10:53:44.491Z,17.70
2019-05-29T10:54:46.089Z,17.81
2019-05-29T10:55:44.499Z,17.77
2019-05-29T10:56:44.780Z,17.71
2019-05-29T10:57:44.793Z,17.64
2019-05-29T10:58:49.595Z,17.74
2019-05-29T10:59:44.616Z,17.72
2019-05-29T11:00:45.401Z,17.79
2019-05-29T11:01:45.125Z,17.72
2019-05-29T11:02:45.889Z,17.70
2019-05-29T11:03:45.541Z,17.90
2019-05-29T11:04:48.627Z,18.03
2019-05-29T11:05:45.637Z,18.08
2019-05-29T11:06:46.048Z,18.07
2019-05-29T11:07:45.700Z,18.14
2019-05-29T11:08:45.811Z,18.08
2019-05-29T11:09:45.604Z,18.11
2019-05-29T11:10:45.906Z,18.07
2019-05-29T11:11:46.150Z,18.03
2019-05-29T11:12:44.634Z,18.10
2019-05-29T11:13:44.665Z,18.17
2019-05-29T11:14:44.712Z,18.20
2019-05-29T11:15:44.687Z,18.11
2019-05-29T11:16:44.694Z,18.15
2019-05-29T11:17:44.712Z,18.27
2019-05-29T11:20:44.853Z,18.14
2019-05-29T11:21:45.287Z,18.17
2019-05-29T11:22:44.778Z,18.15
2019-05-29T11:23:44.805Z,17.93
2019-05-29T11:24:44.861Z,17.87
2019-05-29T11:25:44.828Z,17.72
2019-05-29T11:27:45.349Z,17.54
2019-05-29T11:28:45.721Z,17.70
2019-05-29T11:29:45.192Z,17.71
2019-05-29T11:30:44.970Z,17.72
2019-05-29T11:31:44.960Z,17.90
2019-05-29T11:32:47.501Z,18.17
2019-05-29T11:33:44.952Z,18.41
2019-05-29T11:34:45.039Z,18.44
2019-05-29T11:35:58.098Z,18.55
2019-05-29T11:36:44.988Z,18.60
2019-05-29T11:37:45.130Z,18.51
2019-05-29T11:38:45.116Z,18.44
2019-05-29T11:39:45.027Z,18.55
2019-05-29T11:41:45.208Z,18.55
2019-05-29T11:42:45.135Z,18.67
2019-05-29T11:43:46.059Z,18.55
2019-05-29T11:44:45.109Z,18.54
2019-05-29T11:45:45.272Z,18.73
2019-05-29T11:47:46.815Z,18.32
2019-05-29T11:48:45.157Z,18.11
2019-05-29T11:49:45.177Z,18.18
2019-05-29T11:50:45.471Z,18.12
2019-05-29T11:51:45.222Z,18.23
2019-05-29T11:53:45.238Z,18.52
2019-05-29T11:54:45.751Z,18.63
2019-05-29T11:56:45.434Z,18.66
2019-05-29T11:57:45.312Z,18.55
2019-05-29T11:58:45.355Z,18.54
2019-05-29T11:59:45.337Z,18.75
2019-05-29T12:00:45.343Z,18.85
2019-05-29T12:01:50.240Z,18.99
2019-05-29T12:02:45.371Z,19.14
2019-05-29T12:04:08.182Z,19.33
2019-05-29T12:04:45.402Z,19.31
2019-05-29T12:05:45.406Z,19.33
2019-05-29T12:06:45.470Z,19.37
2019-05-29T12:07:45.642Z,19.40
2019-05-29T12:08:45.451Z,19.56
2019-05-29T12:09:45.477Z,19.44
2019-05-29T12:10:45.505Z,19.61
2019-05-29T12:11:45.500Z,19.81
2019-05-29T12:12:45.514Z,19.87
2019-05-29T12:13:45.548Z,19.92
2019-05-29T12:14:58.811Z,19.28
2019-05-29T12:15:45.557Z,19.18
2019-05-29T12:16:45.811Z,19.22
2019-05-29T12:17:45.695Z,19.33
2019-05-29T12:18:45.600Z,19.40
2019-05-29T12:19:45.638Z,19.40
2019-05-29T12:20:45.629Z,19.48
2019-05-29T12:21:45.669Z,19.78
2019-05-29T12:23:11.137Z,20.08
2019-05-29T12:23:45.692Z,20.13
2019-05-29T12:24:46.199Z,20.28
2019-05-29T12:25:45.702Z,20.28
2019-05-29T12:26:45.721Z,20.31
2019-05-29T12:27:45.739Z,20.52
2019-05-29T12:29:45.956Z,20.38
2019-05-29T12:30:46.184Z,20.20
2019-05-29T12:31:45.807Z,20.02
2019-05-29T12:32:45.817Z,20.01
2019-05-29T12:34:53.483Z,19.95
2019-05-29T12:35:45.859Z,20.14
2019-05-29T12:36:45.869Z,20.35
2019-05-29T12:37:45.923Z,20.43
2019-05-29T12:38:45.915Z,20.47
2019-05-29T12:39:45.916Z,20.32
2019-05-29T12:40:45.930Z,20.28
2019-05-29T12:41:45.952Z,19.99
2019-05-29T12:42:45.965Z,19.78
2019-05-29T12:43:46.024Z,19.71
2019-05-29T12:44:46.013Z,19.95
2019-05-29T12:45:46.019Z,20.11
2019-05-29T12:46:46.064Z,20.16
2019-05-29T12:47:46.056Z,19.99
2019-05-29T12:48:46.090Z,19.91
2019-05-29T12:49:46.093Z,19.88
2019-05-29T12:50:46.096Z,19.99
2019-05-29T12:51:48.399Z,20.29
2019-05-29T12:52:46.145Z,20.35
2019-05-29T12:53:46.149Z,20.57
2019-05-29T12:54:46.199Z,20.74
2019-05-29T12:55:46.313Z,20.98
2019-05-29T12:56:46.217Z,21.34
2019-05-29T12:57:46.230Z,21.53
2019-05-29T12:58:46.274Z,21.47
2019-05-29T12:59:46.268Z,21.62
2019-05-29T13:00:46.301Z,21.74
2019-05-29T13:01:46.317Z,21.65
2019-05-29T13:02:46.430Z,22.03
2019-05-29T13:03:46.362Z,22.47
2019-05-29T13:05:06.837Z,22.60
2019-05-29T13:05:46.412Z,22.43
2019-05-29T13:06:46.418Z,22.43
2019-05-29T13:07:46.439Z,22.39
2019-05-29T13:08:46.461Z,23.00
2019-05-29T13:09:47.574Z,23.75
2019-05-29T13:10:46.506Z,24.42
2019-05-29T13:11:46.535Z,24.83
2019-05-29T13:12:46.571Z,24.45
2019-05-29T13:13:46.573Z,24.27
2019-05-29T13:14:46.594Z,24.39
2019-05-29T13:15:46.617Z,24.61
2019-05-29T13:16:47.033Z,24.90
2019-05-29T13:17:46.770Z,25.15
2019-05-29T13:18:46.694Z,25.50
2019-05-29T13:19:46.729Z,25.42
2019-05-29T13:20:46.753Z,24.91
2019-05-29T13:21:46.760Z,24.55
2019-05-29T13:22:46.787Z,24.46
2019-05-29T13:23:46.810Z,24.42
2019-05-29T13:24:46.835Z,24.69
2019-05-29T13:25:46.877Z,24.96
2019-05-29T13:26:46.971Z,24.83
2019-05-29T13:27:46.924Z,24.42
2019-05-29T13:30:48.234Z,24.67
2019-05-29T13:31:47.027Z,24.80
2019-05-29T13:32:47.322Z,25.06
2019-05-29T13:33:47.049Z,25.25
2019-05-29T13:34:47.219Z,24.87
2019-05-29T13:35:47.184Z,24.95
2019-05-29T13:37:36.065Z,24.88
2019-05-29T13:38:35.816Z,25.06
2019-05-29T13:39:36.485Z,25.69